Home > Products > Valid Products > MTR

000
SAUS44 KSHV 161058
MTRAQV
METAR KAQV 161056Z AUTO 02004KT 8SM CLR 23/21 A3007 RMK AO2 SLP177
T02330211





000
SAUS44 KSHV 161056
MTRBKB
METAR KBKB 161054Z AUTO 00000KT 10SM CLR 24/22 A3004 RMK AO2 SLP199
T02390217 $





000
SAUS44 KSHV 161056
MTRPOE
METAR KPOE 161055Z AUTO 00000KT 10SM CLR 23/22 A3007 RMK AO2 SLP183
T02330222 $





000
SAUS44 KSHV 160957
MTRAQV
METAR KAQV 160956Z AUTO 03003KT 10SM CLR 24/22 A3005 RMK AO2 SLP171
T02390217





000
SAUS44 KSHV 160956
MTRPOE
METAR KPOE 160955Z AUTO 08004KT 10SM CLR 24/22 A3005 RMK AO2 SLP177
T02390222 $





000
SAUS44 KSHV 160955
MTRBKB
METAR KBKB 160954Z AUTO 00000KT 10SM CLR 24/22 A3004 RMK AO2 SLP197
T02390217 $





000
SAUS44 KSHV 160859
MTRAQV
METAR KAQV 160856Z AUTO 00000KT 9SM CLR 24/22 A3006 RMK AO2 SLP177
T02390222 58011





000
SAUS44 KSHV 160856
MTRPOE
METAR KPOE 160855Z AUTO 05004KT 10SM CLR 24/22 A3007 RMK AO2 SLP183
T02390222 56010 $





000
SAUS44 KSHV 160855
MTRBKB
METAR KBKB 160854Z AUTO 00000KT 9SM CLR 24/22 A3005 RMK AO2 SLP201
T02440222 56008 $





000
SAUS44 KSHV 160757
MTRAQV
METAR KAQV 160756Z AUTO 00000KT 8SM CLR 24/23 A3008 RMK AO2 SLP183
T02390228





000
SAUS44 KSHV 160756
MTRPOE
METAR KPOE 160755Z AUTO 03005KT 10SM CLR 24/22 A3007 RMK AO2 SLP184
T02390222 $





000
SAUS44 KSHV 160755
MTRBKB
METAR KBKB 160754Z AUTO 00000KT 6SM BR CLR 24/22 A3006 RMK AO2
SLP202 T02440222 $





000
SAUS44 KSHV 160657
MTRAQV
METAR KAQV 160656Z AUTO 36003KT 10SM CLR 25/23 A3009 RMK AO2 SLP186
T02500228





000
SAUS44 KSHV 160656
MTRPOE
METAR KPOE 160655Z AUTO 05003KT 10SM CLR 24/23 A3009 RMK AO2 SLP189
T02440228 $





000
SAUS44 KSHV 160655
MTRBKB
METAR KBKB 160654Z AUTO 00000KT 7SM CLR 24/23 A3006 RMK AO2 SLP206
T02440228 $





000
SAUS44 KSHV 160558
MTRAQV
METAR KAQV 160556Z AUTO 00000KT 9SM FEW043 BKN065 24/23 A3010 RMK
AO2 SLP188 T02440233 10278 20244 403330189 50001





000
SAUS44 KSHV 160557
MTRPOE
METAR KPOE 160555Z AUTO 05003KT 10SM CLR 24/23 A3010 RMK AO2 SLP193
T02440228 10283 20244 50003 $





000
SAUS44 KSHV 160555
MTRBKB
METAR KBKB 160554Z AUTO 00000KT 8SM CLR 25/23 A3008 RMK AO2 SLP210
T02500228 10289 20250 403330200 50002 $





000
SAUS44 KSHV 160457
MTRAQV
METAR KAQV 160456Z AUTO 00000KT 8SM SCT047 BKN070 25/23 A3010 RMK
AO2 SLP190 T02500233





000
SAUS44 KSHV 160456
MTRPOE
METAR KPOE 160455Z AUTO 08005KT 10SM BKN034 26/23 A3011 RMK AO2
SLP195 T02560233 403170194 $





000
SAUS44 KSHV 160455
MTRBKB
METAR KBKB 160454Z AUTO 00000KT 10SM FEW042 SCT080 26/23 A3009 RMK
AO2 SLP214 T02610233 $





000
SAUS44 KSHV 160357
MTRAQV
METAR KAQV 160356Z AUTO 00000KT 10SM CLR 26/23 A3010 RMK AO2 SLP189
T02560233





000
SAUS44 KSHV 160357
MTRPOE
METAR KPOE 160355Z AUTO 05004KT 10SM SCT047 BKN060 26/23 A3011 RMK
AO2 SLP196 T02560233





000
SAUS44 KSHV 160355
MTRBKB
METAR KBKB 160354Z AUTO 00000KT 10SM FEW045 26/23 A3009 RMK AO2
SLP214 T02610233 PWINO $





000
SAUS44 KSHV 160257
MTRAQV
METAR KAQV 160256Z AUTO 35003KT 10SM CLR 25/23 A3009 RMK AO2 SLP187
T02500233 51013





000
SAUS44 KSHV 160256
MTRBKB
METAR KBKB 160254Z AUTO 00000KT 10SM CLR 27/24 A3007 RMK AO2 SLP208
T02670239 51014





000
SAUS44 KSHV 160256
MTRPOE
METAR KPOE 160255Z AUTO 02006KT 10SM CLR 26/23 A3009 RMK AO2 SLP190
T02610233 51013





000
SAUS44 KSHV 160158
MTRAQV
METAR KAQV 160156Z AUTO 02004KT 10SM CLR 26/24 A3008 RMK AO2 SLP184
T02610239





000
SAUS44 KSHV 160156
MTRPOE
METAR KPOE 160155Z AUTO 02006KT 10SM CLR 26/24 A3008 RMK AO2 SLP188
T02610239





000
SAUS44 KSHV 160155
MTRBKB
METAR KBKB 160154Z AUTO 00000KT 10SM CLR 27/24 A3006 RMK AO2 SLP204
T02670239





000
SAUS44 KSHV 160058
MTRAQV
METAR KAQV 160056Z AUTO 01003KT 10SM CLR 27/24 A3007 RMK AO2 SLP179
T02670239





000
SAUS44 KSHV 160056
MTRPOE
METAR KPOE 160055Z AUTO 03004KT 10SM CLR 27/24 A3007 RMK AO2 SLP182
T02670239





000
SAUS44 KSHV 160056
MTRBKB
METAR KBKB 160054Z AUTO 00000KT 10SM CLR 27/24 A3004 RMK AO2 SLP200
T02720239





000
SAUS44 KSHV 152357
MTRAQV
METAR KAQV 152356Z AUTO 02003KT 10SM CLR 28/24 A3006 RMK AO2 SLP175
T02780239 10333 20278 53000





000
SAUS44 KSHV 152356
MTRPOE
METAR KPOE 152355Z AUTO 05003KT 10SM CLR 28/23 A3005 RMK AO2 SLP178
T02830233 10317 20283 55000





000
SAUS44 KSHV 152355
MTRBKB
METAR KBKB 152354Z AUTO 00000KT 10SM CLR 29/24 A3003 RMK AO2 SLP195
T02890239 10333 20289 55000





000
SAUS44 KSHV 152257
MTRAQV
METAR KAQV 152256Z AUTO 36004KT 10SM CLR 29/24 A3005 RMK AO2 SLP173
T02890239





000
SAUS44 KSHV 152256
MTRPOE
METAR KPOE 152255Z AUTO 04005KT 10SM CLR 29/23 A3005 RMK AO2 SLP177
T02890233





000
SAUS44 KSHV 152255
MTRBKB
METAR KBKB 152254Z AUTO VRB03KT 10SM CLR 31/23 A3003 RMK AO2 SLP193
T03060228





000
SAUS44 KSHV 152158
MTRAQV
METAR KAQV 152156Z AUTO 05004KT 10SM SCT029 30/23 A3005 RMK AO2
SLP171 T03000233





000
SAUS44 KSHV 152156
MTRPOE
METAR KPOE 152155Z AUTO 03005KT 10SM FEW050 31/23 A3005 RMK AO2
SLP176 T03060228





000
SAUS44 KSHV 152155
MTRBKB
METAR KBKB 152154Z AUTO 00000KT 10SM CLR 31/23 A3003 RMK AO2 SLP193
T03110233





000
SAUS44 KSHV 152057
MTRAQV
METAR KAQV 152056Z AUTO VRB04KT 10SM BKN042 BKN060 31/23 A3005 RMK
AO2 SLP173 T03110228 56015





000
SAUS44 KSHV 152056
MTRPOE
METAR KPOE 152055Z AUTO 05004KT 10SM CLR 31/22 A3006 RMK AO2 SLP178
T03060222 56017





000
SAUS44 KSHV 152055
MTRBKB
METAR KBKB 152054Z AUTO VRB04KT 10SM FEW037 33/22 A3003 RMK AO2
SLP194 T03330217 56017





000
SAUS44 KSHV 151958
MTRAQV
METAR KAQV 151956Z AUTO 00000KT 10SM FEW050 33/22 A3006 RMK AO2
SLP177 T03280222





000
SAUS44 KSHV 151956
MTRPOE
METAR KPOE 151955Z AUTO 09006KT 10SM CLR 32/22 A3007 RMK AO2 SLP181
T03170222





000
SAUS44 KSHV 151955
MTRBKB
METAR KBKB 151954Z AUTO VRB04KT 10SM CLR 33/23 A3004 RMK AO2 SLP198
T03280228





000
SAUS44 KSHV 151857
MTRAQV
METAR KAQV 151856Z AUTO 07003KT 10SM FEW050 31/22 A3008 RMK AO2
SLP183 T03060222





000
SAUS44 KSHV 151856
MTRPOE
METAR KPOE 151855Z AUTO 06007KT 10SM SCT055 30/22 A3009 RMK AO2
SLP188 T03000222





000
SAUS44 KSHV 151855
MTRBKB
METAR KBKB 151854Z AUTO 05004KT 10SM CLR 32/22 A3006 RMK AO2 SLP205
T03170222





000
SAUS44 KSHV 151758
MTRAQV
METAR KAQV 151756Z AUTO 03006KT 10SM BKN030 BKN041 30/23 A3010 RMK
AO2 SLP189 T03000228 10311 20189 58008





000
SAUS44 KSHV 151756
MTRPOE
METAR KPOE 151755Z AUTO VRB05KT 10SM FEW036 31/22 A3010 RMK AO2
SLP194 T03060222 10311 20200 58008





000
SAUS44 KSHV 151756
MTRBKB
METAR KBKB 151754Z AUTO 00000KT 10SM FEW029 31/22 A3008 RMK AO2
SLP211 T03110222 10322 20200 58009





000
SAUS44 KSHV 151657
MTRAQV
METAR KAQV 151656Z AUTO 07006KT 10SM FEW026 30/22 A3011 RMK AO2
SLP193 T03000222





000
SAUS44 KSHV 151656
MTRPOE
METAR KPOE 151655Z AUTO 06006KT 10SM CLR 31/22 A3012 RMK AO2 SLP200
T03060222





000
SAUS44 KSHV 151656
MTRBKB
METAR KBKB 151654Z AUTO 00000KT 10SM CLR 31/22 A3010 RMK AO2 SLP217
T03060222





000
SAUS44 KSHV 151558
MTRAQV
METAR KAQV 151556Z AUTO 00000KT 10SM CLR 29/22 A3012 RMK AO2 SLP196
T02940217





000
SAUS44 KSHV 151556
MTRPOE
METAR KPOE 151555Z AUTO 08005KT 10SM CLR 28/22 A3013 RMK AO2 SLP203
T02830217





000
SAUS44 KSHV 151555
MTRBKB
METAR KBKB 151554Z AUTO VRB03KT 10SM CLR 30/22 A3010 RMK AO2 SLP218
T03000217





000
SAUS44 KSHV 151457
MTRAQV
METAR KAQV 151456Z AUTO 07004KT 10SM CLR 27/21 A3012 RMK AO2 SLP198
T02670206 50005





000
SAUS44 KSHV 151456
MTRPOE
METAR KPOE 151455Z AUTO 08006KT 10SM CLR 27/21 A3013 RMK AO2 SLP203
T02670211 51007





000
SAUS44 KSHV 151455
MTRBKB
METAR KBKB 151454Z AUTO VRB03KT 10SM CLR 27/21 A3011 RMK AO2 SLP221
T02720206 51004





000
SAUS44 KSHV 151358
MTRAQV
METAR KAQV 151356Z AUTO 02004KT 10SM CLR 24/19 A3013 RMK AO2 SLP199
T02390194





000
SAUS44 KSHV 151356
MTRBKB
METAR KBKB 151354Z AUTO VRB03KT 10SM CLR 24/19 A3011 RMK AO2 SLP221
T02440194





000
SAUS44 KSHV 151356
MTRPOE
METAR KPOE 151355Z AUTO 06004KT 10SM CLR 24/20 A3013 RMK AO2 SLP203
T02390200





000
SAUS44 KSHV 151257
MTRAQV
METAR KAQV 151256Z AUTO 00000KT 8SM CLR 21/19 A3012 RMK AO2 SLP196
T02060189





000
SAUS44 KSHV 151256
MTRPOE
METAR KPOE 151255Z AUTO 03004KT 10SM CLR 21/19 A3012 RMK AO2 SLP200
T02110194





000
SAUS44 KSHV 151255
MTRBKB
METAR KBKB 151254Z AUTO 00000KT 9SM CLR 21/19 A3010 RMK AO2 SLP219
T02110189





000
SAUS44 KSHV 151159
MTRAQV
METAR KAQV 151156Z AUTO 00000KT 4SM BR CLR 19/18 A3011 RMK AO2
SLP192 T01890183 10200 20189 53005





000
SAUS44 KSHV 151156
MTRPOE
METAR KPOE 151155Z AUTO 05004KT 10SM CLR 20/19 A3011 RMK AO2 SLP196
T02000189 10206 20194 53003





000
SAUS44 KSHV 151156
MTRBKB
METAR KBKB 151154Z AUTO 00000KT 8SM CLR 20/18 A3009 RMK AO2 SLP217
T02000183 10206 20200 53005





000
SAUS44 KSHV 151057
MTRAQV
METAR KAQV 151056Z AUTO 00000KT 5SM BR CLR 19/18 A3010 RMK AO2
SLP190 T01890183





000
SAUS44 KSHV 151056
MTRPOE
METAR KPOE 151055Z AUTO 02004KT 10SM CLR 20/19 A3010 RMK AO2 SLP194
T02000189





000
SAUS44 KSHV 151056
MTRBKB
METAR KBKB 151054Z AUTO 00000KT 6SM BR CLR 20/18 A3008 RMK AO2
SLP211 T02000183





000
SAUS44 KSHV 150958
MTRAQV
METAR KAQV 150956Z AUTO 00000KT 6SM BR CLR 19/18 A3009 RMK AO2
SLP187 T01940183





000
SAUS44 KSHV 150956
MTRBKB
METAR KBKB 150954Z AUTO 00000KT 9SM CLR 21/18 A3007 RMK AO2 SLP210
T02060183





000
SAUS44 KSHV 150956
MTRPOE
METAR KPOE 150955Z AUTO 07003KT 10SM CLR 20/19 A3009 RMK AO2 SLP191
T02000189





000
SAUS44 KSHV 150857
MTRAQV
METAR KAQV 150856Z AUTO 00000KT 8SM CLR 19/18 A3009 RMK AO2 SLP187
T01940183 56009





000
SAUS44 KSHV 150856
MTRBKB
METAR KBKB 150854Z AUTO 00000KT 9SM CLR 21/18 A3008 RMK AO2 SLP212
T02060183 58007





000
SAUS44 KSHV 150856
MTRPOE
METAR KPOE 150855Z AUTO 06004KT 10SM CLR 21/19 A3010 RMK AO2 SLP193
T02060189 56009





000
SAUS44 KSHV 150758
MTRAQV
METAR KAQV 150756Z AUTO 00000KT 6SM BR CLR 19/18 A3010 RMK AO2
SLP188 T01940183





000
SAUS44 KSHV 150756
MTRPOE
METAR KPOE 150755Z AUTO 06003KT 10SM CLR 20/18 A3010 RMK AO2 SLP194
T02000183





000
SAUS44 KSHV 150755
MTRBKB
METAR KBKB 150754Z AUTO 00000KT 9SM CLR 21/18 A3009 RMK AO2 SLP214
T02060183





000
SAUS44 KSHV 150658
MTRAQV
METAR KAQV 150656Z AUTO 00000KT 6SM BR CLR 19/18 A3011 RMK AO2
SLP194 T01940183





000
SAUS44 KSHV 150656
MTRPOE
METAR KPOE 150655Z AUTO 02004KT 10SM CLR 20/18 A3011 RMK AO2 SLP199
T02000183





000
SAUS44 KSHV 150655
MTRBKB
METAR KBKB 150654Z AUTO 00000KT 8SM CLR 21/18 A3010 RMK AO2 SLP218
T02060183





000
SAUS44 KSHV 150558
MTRAQV
METAR KAQV 150556Z AUTO 00000KT 8SM CLR 20/19 A3012 RMK AO2 SLP197
T02000189 10233 20200 402610172 58005





000
SAUS44 KSHV 150556
MTRPOE
METAR KPOE 150555Z AUTO 02003KT 10SM CLR 20/19 A3012 RMK AO2 SLP203
T02000189 10233 20200 58004





000
SAUS44 KSHV 150555
MTRBKB
METAR KBKB 150554Z AUTO 00000KT 9SM CLR 21/18 A3010 RMK AO2 SLP219
T02060183 10239 20206 402670178 58005





000
SAUS44 KSHV 150458
MTRAQV
METAR KAQV 150456Z AUTO 00000KT 9SM CLR 21/19 A3012 RMK AO2 SLP199
T02060189





000
SAUS44 KSHV 150457
MTRPOE
METAR KPOE 150455Z AUTO 03003KT 10SM CLR 20/19 A3013 RMK AO2 SLP203
T02000189 402560167





000
SAUS44 KSHV 150455
MTRBKB
METAR KBKB 150454Z AUTO 02003KT 9SM CLR 21/19 A3011 RMK AO2 SLP223
T02060189





000
SAUS44 KSHV 150357
MTRAQV
METAR KAQV 150356Z AUTO 02003KT 9SM CLR 21/19 A3013 RMK AO2 SLP202
T02060189





000
SAUS44 KSHV 150356
MTRPOE
METAR KPOE 150355Z AUTO 04004KT 10SM CLR 21/19 A3014 RMK AO2 SLP206
T02060194





000
SAUS44 KSHV 150355
MTRBKB
METAR KBKB 150354Z AUTO 00000KT 10SM CLR 21/19 A3012 RMK AO2 SLP224
T02110189





000
SAUS44 KSHV 150257
MTRAQV
METAR KAQV 150256Z AUTO 00000KT 9SM CLR 21/19 A3013 RMK AO2 SLP202
T02060194 53012





000
SAUS44 KSHV 150256
MTRPOE
METAR KPOE 150255Z AUTO 02004KT 10SM CLR 21/19 A3014 RMK AO2 SLP206
T02060194 53012





000
SAUS44 KSHV 150255
MTRBKB
METAR KBKB 150254Z AUTO 00000KT 10SM CLR 22/19 A3012 RMK AO2 SLP225
T02170194 53013





000
SAUS44 KSHV 150157
MTRAQV
METAR KAQV 150156Z AUTO 00000KT 10SM CLR 22/19 A3012 RMK AO2 SLP196
T02170194





000
SAUS44 KSHV 150156
MTRPOE
METAR KPOE 150155Z AUTO 03003KT 10SM CLR 22/20 A3012 RMK AO2 SLP202
T02170200





000
SAUS44 KSHV 150155
MTRBKB
METAR KBKB 150154Z AUTO 03003KT 10SM CLR 22/19 A3010 RMK AO2 SLP219
T02220194





000
SAUS44 KSHV 150058
MTRAQV
METAR KAQV 150056Z AUTO 03003KT 10SM CLR 22/19 A3010 RMK AO2 SLP191
T02220194





000
SAUS44 KSHV 150056
MTRPOE
METAR KPOE 150055Z AUTO 00000KT 10SM CLR 22/20 A3011 RMK AO2 SLP196
T02220200





000
SAUS44 KSHV 150055
MTRBKB
METAR KBKB 150054Z AUTO 00000KT 10SM CLR 22/20 A3008 RMK AO2 SLP213
T02220200





000
SAUS44 KSHV 142357
MTRAQV
METAR KAQV 142356Z AUTO 01003KT 10SM CLR 23/19 A3010 RMK AO2 SLP190
T02330194 10261 20206 55003





000
SAUS44 KSHV 142356
MTRPOE
METAR KPOE 142355Z AUTO 02004KT 10SM CLR 23/20 A3010 RMK AO2 SLP194
T02330200 10256 20222 56002





000
SAUS44 KSHV 142355
MTRBKB
METAR KBKB 142354Z AUTO 00000KT 10SM CLR 24/20 A3008 RMK AO2 SLP211
T02390200 10267 20222 56006





000
SAUS44 KSHV 142258
MTRAQV
METAR KAQV 142256Z AUTO 01006KT 10SM CLR 25/19 A3009 RMK AO2 SLP188
T02500194





000
SAUS44 KSHV 142256
MTRPOE
METAR KPOE 142255Z AUTO 05006KT 10SM CLR 25/20 A3010 RMK AO2 SLP194
T02500200





000
SAUS44 KSHV 142255
MTRBKB
METAR KBKB 142254Z AUTO 00000KT 10SM SCT018 26/19 A3008 RMK AO2
SLP212 T02560194





000
SAUS44 KSHV 142208
MTRBKB
SPECI KBKB 142207Z AUTO VRB03KT 10SM BKN018 26/20 A3008 RMK AO2
T02610200





000
SAUS44 KSHV 142157
MTRAQV
METAR KAQV 142156Z AUTO 02006KT 10SM CLR 26/19 A3009 RMK AO2 SLP188
T02560189





000
SAUS44 KSHV 142156
MTRPOE
METAR KPOE 142155Z AUTO 06006KT 10SM SCT020 25/19 A3010 RMK AO2
SLP193 T02500194





000
SAUS44 KSHV 142155
MTRBKB
METAR KBKB 142154Z AUTO VRB04KT 10SM SCT016 26/19 A3008 RMK AO2
SLP210 T02610194





000
SAUS44 KSHV 142140
MTRPOE
SPECI KPOE 142138Z AUTO 07006KT 10SM BKN020 25/19 A3010 RMK AO2





000
SAUS44 KSHV 142058
MTRAQV
METAR KAQV 142056Z AUTO VRB04KT 10SM CLR 25/18 A3011 RMK AO2 SLP192
T02500183 56019





000
SAUS44 KSHV 142056
MTRBKB
METAR KBKB 142054Z AUTO 00000KT 10SM OVC016 25/19 A3009 RMK AO2
SLP217 T02500189 56017





000
SAUS44 KSHV 142056
MTRPOE
METAR KPOE 142055Z AUTO 02006KT 10SM SCT018 24/19 A3011 RMK AO2
SLP196 T02440194 58014





000
SAUS44 KSHV 142043 COR
MTRPOE
SPECI KPOE 142038Z AUTO 36006KT 10SM SCT018 24/19 A3011 RMK AO2





000
SAUS44 KSHV 142041 COR
MTRPOE
SPECI KPOE 142038Z AUTO 36006KT 10SM SCT018 24/19 A3011 RMK AO2





000
SAUS44 KSHV 142040 COR
MTRPOE
SPECI KPOE 142038Z AUTO 36006KT 10SM SCT018 24/19 A3011 RMK AO2





000
SAUS44 KSHV 142039
MTRPOE
SPECI KPOE 142038Z AUTO 36006KT 10SM SCT018 24/19 A3011 RMK AO2





000
SAUS44 KSHV 142017
MTRAQV
SPECI KAQV 142016Z AUTO 04006KT 10SM SCT014 24/18 A3012 RMK AO2
T02390183





000
SAUS44 KSHV 142016
MTRBKB
SPECI KBKB 142015Z AUTO VRB04KT 10SM OVC015 25/19 A3009 RMK AO2
T02500189





000
SAUS44 KSHV 141957
MTRAQV
METAR KAQV 141956Z AUTO 03005KT 10SM BKN013 24/18 A3012 RMK AO2
SLP197 T02390183





000
SAUS44 KSHV 141956
MTRPOE
METAR KPOE 141955Z AUTO 04009G14KT 10SM BKN016 24/19 A3012 RMK AO2
SLP201 T02390189





000
SAUS44 KSHV 141955
MTRBKB
METAR KBKB 141954Z AUTO VRB03KT 10SM OVC013 24/18 A3010 RMK AO2
SLP219 T02390183





000
SAUS44 KSHV 141858
MTRAQV
METAR KAQV 141856Z AUTO 35006KT 10SM OVC011 22/18 A3014 RMK AO2
SLP205 T02170178





000
SAUS44 KSHV 141856
MTRPOE
METAR KPOE 141855Z AUTO 35007KT 10SM BKN016 22/18 A3015 RMK AO2
SLP210 T02220183





000
SAUS44 KSHV 141856
MTRBKB
METAR KBKB 141854Z AUTO VRB04KT 10SM OVC012 23/18 A3013 RMK AO2
SLP229 T02280178





000
SAUS44 KSHV 141835
MTRAQV
SPECI KAQV 141833Z AUTO 02007KT 10SM OVC010 21/17 A3015 RMK AO2
T02110172





000
SAUS44 KSHV 141758
MTRAQV
METAR KAQV 141756Z AUTO 03004KT 10SM OVC009 21/17 A3016 RMK AO2
SLP212 T02060172 10206 20172 58015





000
SAUS44 KSHV 141756
MTRPOE
METAR KPOE 141755Z AUTO 36006KT 10SM OVC012 21/18 A3016 RMK AO2
SLP216 T02110178 10211 20167 58015





000
SAUS44 KSHV 141755
MTRBKB
METAR KBKB 141754Z AUTO VRB04KT 10SM OVC011 22/17 A3014 RMK AO2
SLP235 T02170172 10222 20178 58015





000
SAUS44 KSHV 141706
MTRPOE
SPECI KPOE 141705Z AUTO 05008KT 10SM OVC010 20/17 A3019 RMK AO2





000
SAUS44 KSHV 141659
MTRAQV
METAR KAQV 141656Z AUTO 03006KT 10SM OVC007 19/17 A3019 RMK AO2
SLP220 T01940167





000
SAUS44 KSHV 141656
MTRPOE
METAR KPOE 141655Z AUTO 01007KT 10SM OVC008 19/17 A3019 RMK AO2
SLP224 T01940167





000
SAUS44 KSHV 141655
MTRBKB
METAR KBKB 141654Z AUTO VRB04KT 10SM OVC011 21/17 A3016 RMK AO2
SLP242 T02110172





000
SAUS44 KSHV 141624
MTRBKB
SPECI KBKB 141623Z AUTO VRB05KT 10SM OVC010 21/17 A3017 RMK AO2
T02110172





000
SAUS44 KSHV 141624
MTRPOE
SPECI KPOE 141622Z AUTO VRB04KT 10SM OVC008 19/17 A3019 RMK AO2





000
SAUS44 KSHV 141557
MTRAQV
METAR KAQV 141556Z AUTO 02006KT 10SM OVC006 18/17 A3020 RMK AO2
SLP224 T01830167





000
SAUS44 KSHV 141556
MTRPOE
METAR KPOE 141555Z AUTO 04007KT 10SM OVC006 18/17 A3020 RMK AO2 CIG
006V010 SLP229 T01830167





000
SAUS44 KSHV 141556
MTRBKB
METAR KBKB 141554Z AUTO VRB05KT 10SM OVC008 21/17 A3018 RMK AO2
SLP246 T02060172





000
SAUS44 KSHV 141523
MTRBKB
SPECI KBKB 141522Z AUTO VRB05KT 10SM OVC006 19/17 A3019 RMK AO2 CIG
004V008 T01940167





000
SAUS44 KSHV 141457
MTRAQV
METAR KAQV 141456Z AUTO 03006KT 9SM OVC006 18/16 A3021 RMK AO2
SLP228 T01830161 53018





000
SAUS44 KSHV 141456
MTRPOE
METAR KPOE 141455Z AUTO VRB04KT 10SM OVC006 18/17 A3021 RMK AO2
SLP231 T01830167 51018





000
SAUS44 KSHV 141455
MTRBKB
METAR KBKB 141454Z AUTO VRB04KT 5SM BR OVC004 19/17 A3019 RMK AO2
SLP250 T01890167 53017





000
SAUS44 KSHV 141444
MTRBKB
SPECI KBKB 141443Z AUTO 00000KT 3SM BR OVC003 19/17 A3019 RMK AO2
T01890167





000
SAUS44 KSHV 141442
MTRPOE
SPECI KPOE 141441Z AUTO VRB03KT 10SM OVC006 18/17 A3021 RMK AO2





000
SAUS44 KSHV 141431
MTRBKB
SPECI KBKB 141430Z AUTO VRB03KT 2SM BR OVC003 18/17 A3018 RMK AO2
T01830167





000
SAUS44 KSHV 141357
MTRAQV
METAR KAQV 141356Z AUTO 02006KT 8SM OVC006 18/16 A3019 RMK AO2
SLP221 T01780161





000
SAUS44 KSHV 141356
MTRPOE
METAR KPOE 141355Z AUTO 02005KT 10SM OVC004 17/17 A3019 RMK AO2
SLP226 T01720167





000
SAUS44 KSHV 141355
MTRBKB
METAR KBKB 141354Z AUTO VRB03KT 1 1/2SM BR OVC003 18/17 A3017 RMK
AO2 SLP245 T01830167





000
SAUS44 KSHV 141328
MTRBKB
SPECI KBKB 141326Z AUTO VRB04KT 1 1/2SM BR OVC003 18/17 A3016 RMK
AO2 T01830167





000
SAUS44 KSHV 141257
MTRAQV
METAR KAQV 141256Z AUTO 04005KT 8SM OVC006 17/16 A3017 RMK AO2
SLP215 T01720156





000
SAUS44 KSHV 141256
MTRPOE
METAR KPOE 141255Z AUTO 01007KT 10SM OVC004 17/16 A3017 RMK AO2
SLP219 T01720161





000
SAUS44 KSHV 141255
MTRBKB
METAR KBKB 141254Z AUTO VRB05KT 2SM BR OVC003 18/17 A3015 RMK AO2
SLP236 T01780167





000
SAUS44 KSHV 141243 COR
MTRBKB
SPECI KBKB 141239Z AUTO VRB03KT 1 3/4SM BR OVC003 18/16 A3015 RMK
AO2 T01780161





000
SAUS44 KSHV 141230
MTRPOE
SPECI KPOE 141229Z AUTO 03005KT 10SM OVC004 17/16 A3017 RMK AO2





000
SAUS44 KSHV 141223
MTRBKB
SPECI KBKB 141222Z AUTO VRB03KT 2 1/2SM BR OVC003 18/16 A3015 RMK
AO2 T01780161





000
SAUS44 KSHV 141157
MTRAQV
METAR KAQV 141156Z AUTO 04004KT 10SM OVC006 17/16 A3015 RMK AO2
SLP209 T01720156 10183 20172 53001





000
SAUS44 KSHV 141156
MTRBKB
METAR KBKB 141154Z AUTO VRB03KT 4SM BR OVC003 18/16 A3014 RMK AO2
SLP232 T01780161 10189 20178 51003





000
SAUS44 KSHV 141156
MTRPOE
METAR KPOE 141155Z AUTO 02007KT 10SM OVC006 17/16 A3015 RMK AO2
SLP213 T01720161 10178 20172 51002





000
SAUS44 KSHV 141134
MTRPOE
SPECI KPOE 141133Z AUTO 02007KT 10SM OVC006 17/16 A3015 RMK AO2





000
SAUS44 KSHV 141124
MTRBKB
SPECI KBKB 141123Z AUTO VRB04KT 3SM BR OVC004 18/16 A3013 RMK AO2
T01780161





000
SAUS44 KSHV 141058
MTRAQV
METAR KAQV 141056Z AUTO 36005KT 9SM OVC008 17/16 A3015 RMK AO2
SLP209 T01720156





000
SAUS44 KSHV 141057
MTRBKB
METAR KBKB 141054Z AUTO VRB03KT 4SM BR OVC005 18/16 A3013 RMK AO2
SLP231 T01780161





000
SAUS44 KSHV 141056
MTRPOE
METAR KPOE 141055Z AUTO 03007KT 10SM BKN008 OVC018 17/16 A3015 RMK
AO2 CIG 006V010 SLP212 T01720161





000
SAUS44 KSHV 141053
MTRPOE
SPECI KPOE 141051Z AUTO 03007KT 10SM BKN008 OVC018 17/16 A3015 RMK
AO2





000
SAUS44 KSHV 141042
MTRPOE
SPECI KPOE 141041Z AUTO 02007KT 10SM SCT008 OVC018 17/16 A3015 RMK
AO2





000
SAUS44 KSHV 141026
MTRAQV
SPECI KAQV 141025Z AUTO 36005KT 9SM OVC008 17/16 A3015 RMK AO2 CIG
007V012 T01720156





000
SAUS44 KSHV 141005
MTRPOE
SPECI KPOE 141004Z AUTO 02006KT 10SM BKN008 OVC018 17/16 A3015 RMK
AO2 CIG 007V011





000
SAUS44 KSHV 140957
MTRAQV
METAR KAQV 140956Z AUTO 36006KT 10SM OVC011 17/16 A3015 RMK AO2
SLP208 T01720156





000
SAUS44 KSHV 140956
MTRPOE
METAR KPOE 140955Z AUTO 03007KT 10SM BKN010 OVC018 17/16 A3015 RMK
AO2 SLP211 T01720156





000
SAUS44 KSHV 140955
MTRBKB
METAR KBKB 140954Z AUTO 00000KT 7SM OVC007 18/16 A3013 RMK AO2
SLP231 T01830156





000
SAUS44 KSHV 140920
MTRAQV
SPECI KAQV 140919Z AUTO 35004KT 10SM OVC014 18/16 A3015 RMK AO2
T01780156





000
SAUS44 KSHV 140918
MTRBKB
SPECI KBKB 140917Z AUTO VRB04KT 9SM OVC009 18/16 A3012 RMK AO2
T01830156





000
SAUS44 KSHV 140857
MTRAQV
METAR KAQV 140856Z AUTO VRB04KT 10SM OVC015 18/16 A3015 RMK AO2
SLP208 T01780156 50001





000
SAUS44 KSHV 140856
MTRPOE
METAR KPOE 140855Z AUTO 03005KT 10SM BKN010 OVC016 17/16 A3015 RMK
AO2 SLP211 T01720156 50000





000
SAUS44 KSHV 140855
MTRBKB
METAR KBKB 140854Z AUTO 00000KT 10SM OVC010 18/16 A3013 RMK AO2
SLP229 T01830156 58001





000
SAUS44 KSHV 140836
MTRAQV
SPECI KAQV 140835Z AUTO 02004KT 10SM OVC014 18/16 A3015 RMK AO2
T01780156





000
SAUS44 KSHV 140758
MTRAQV
METAR KAQV 140756Z AUTO VRB05KT 10SM OVC019 18/16 A3015 RMK AO2
SLP210 T01780156





000
SAUS44 KSHV 140756
MTRPOE
METAR KPOE 140755Z AUTO 03007KT 10SM BKN012 OVC020 18/16 A3016 RMK
AO2 SLP213 T01780156





000
SAUS44 KSHV 140755
MTRBKB
METAR KBKB 140754Z AUTO VRB04KT 10SM OVC014 18/16 A3014 RMK AO2
SLP233 T01830156





000
SAUS44 KSHV 140706
MTRBKB
SPECI KBKB 140705Z AUTO VRB04KT 10SM BKN014 OVC022 19/16 A3013 RMK
AO2 T01890156





000
SAUS44 KSHV 140657
MTRAQV
METAR KAQV 140656Z AUTO 02006KT 10SM OVC020 18/16 A3015 RMK AO2
SLP207 T01780156





000
SAUS44 KSHV 140656
MTRPOE
METAR KPOE 140655Z AUTO 03008KT 10SM OVC022 18/16 A3015 RMK AO2
SLP211 T01780156





000
SAUS44 KSHV 140655
MTRBKB
METAR KBKB 140654Z AUTO VRB04KT 10SM SCT016 OVC021 19/16 A3013 RMK
AO2 SLP231 T01890156





000
SAUS44 KSHV 140557
MTRAQV
METAR KAQV 140556Z AUTO 03007KT 10SM OVC017 18/16 A3015 RMK AO2
SLP207 T01830156 10183 20183 402220172 58009





000
SAUS44 KSHV 140556
MTRPOE
METAR KPOE 140555Z AUTO 03008KT 10SM OVC024 18/16 A3015 RMK AO2
SLP211 T01780161 10183 20172 58010





000
SAUS44 KSHV 140555
MTRBKB
METAR KBKB 140554Z AUTO 10SM OVC024 19/16 A3013 RMK AO2 SLP230
T01890156 10194 20189 402330183 58009





000
SAUS44 KSHV 140518
MTRAQV
SPECI KAQV 140517Z AUTO 03006KT 10SM SCT011 OVC020 18/16 A3016 RMK
AO2 T01830161





000
SAUS44 KSHV 140457
MTRAQV
METAR KAQV 140456Z AUTO 02007KT 10SM BKN012 OVC020 18/16 A3017 RMK
AO2 SLP214 T01830161





000
SAUS44 KSHV 140456
MTRBKB
METAR KBKB 140454Z AUTO VRB04KT 10SM FEW011 OVC025 19/16 A3015 RMK
AO2 SLP237 T01890161





000
SAUS44 KSHV 140456
MTRPOE
METAR KPOE 140455Z AUTO 02008KT 10SM OVC024 18/16 A3016 RMK AO2
SLP216 T01830161 402280172





000
SAUS44 KSHV 140446
MTRAQV
SPECI KAQV 140444Z AUTO 01006KT 10SM BKN014 OVC021 18/16 A3017 RMK
AO2 T01830161





000
SAUS44 KSHV 140411
MTRAQV
SPECI KAQV 140410Z AUTO 01006KT 10SM OVC018 18/16 A3018 RMK AO2
T01830161





000
SAUS44 KSHV 140358
MTRAQV
METAR KAQV 140356Z AUTO 02005KT 10SM BKN013 OVC019 18/16 A3017 RMK
AO2 SLP216 T01830161





000
SAUS44 KSHV 140357
MTRPOE
METAR KPOE 140355Z AUTO 02008KT 10SM FEW010 OVC020 18/16 A3018 RMK
AO2 SLP221 T01780161





000
SAUS44 KSHV 140356
MTRBKB
METAR KBKB 140354Z AUTO VRB03KT 10SM OVC024 19/16 A3016 RMK AO2
SLP240 T01890161





000
SAUS44 KSHV 140345
MTRAQV
SPECI KAQV 140343Z AUTO 01004KT 10SM OVC013 18/16 A3018 RMK AO2
T01830161





000
SAUS44 KSHV 140336
MTRPOE
SPECI KPOE 140335Z AUTO 01006KT 10SM SCT010 OVC020 18/16 A3018 RMK
AO2





000
SAUS44 KSHV 140322
MTRAQV
SPECI KAQV 140320Z AUTO 36006KT 10SM OVC015 18/16 A3018 RMK AO2
T01830161





000
SAUS44 KSHV 140259
MTRAQV
METAR KAQV 140256Z AUTO 01005KT 10SM OVC014 18/16 A3018 RMK AO2
SLP217 T01830161 51015





000
SAUS44 KSHV 140256
MTRPOE
METAR KPOE 140255Z AUTO 02005KT 10SM OVC008 18/16 A3018 RMK AO2
SLP222 T01780161 51018





000
SAUS44 KSHV 140255
MTRBKB
METAR KBKB 140254Z AUTO VRB03KT 10SM FEW010 OVC020 19/16 A3016 RMK
AO2 SLP239 T01890161 51016





000
SAUS44 KSHV 140229
MTRBKB
SPECI KBKB 140228Z AUTO VRB03KT 10SM SCT010 OVC020 19/16 A3015 RMK
AO2 T01890161





000
SAUS44 KSHV 140157
MTRAQV
METAR KAQV 140156Z AUTO 36003KT 10SM OVC010 18/16 A3017 RMK AO2
SLP213 T01830161





000
SAUS44 KSHV 140156
MTRPOE
METAR KPOE 140155Z AUTO 03005KT 10SM OVC008 17/16 A3017 RMK AO2
SLP217 T01720161





000
SAUS44 KSHV 140156
MTRBKB
METAR KBKB 140154Z AUTO VRB06KT 10SM OVC008 19/16 A3015 RMK AO2
SLP236 T01890161





000
SAUS44 KSHV 140058
MTRAQV
METAR KAQV 140056Z AUTO VRB05KT 10SM OVC010 18/16 A3014 RMK AO2
SLP205 T01830161





000
SAUS44 KSHV 140056
MTRPOE
METAR KPOE 140055Z AUTO 02008KT 10SM OVC008 18/16 A3014 RMK AO2
SLP210 T01780161





000
SAUS44 KSHV 140056
MTRBKB
METAR KBKB 140054Z AUTO VRB05KT 10SM OVC009 19/16 A3012 RMK AO2
SLP227 T01890161





000
SAUS44 KSHV 140038
MTRBKB
SPECI KBKB 140036Z AUTO VRB04KT 10SM OVC009 19/16 A3012 RMK AO2 CIG
008V012 T01890161





000
SAUS44 KSHV 140028
MTRPOE
SPECI KPOE 140027Z AUTO 02005KT 10SM OVC008 18/16 A3013 RMK AO2





000
SAUS44 KSHV 132358
MTRAQV
METAR KAQV 132356Z AUTO 02003KT 9SM OVC010 18/16 A3013 RMK AO2
SLP201 T01830161 10200 20183 56001





000
SAUS44 KSHV 132357
MTRPOE
METAR KPOE 132355Z AUTO 01007KT 10SM OVC010 18/16 A3013 RMK AO2
SLP203 T01780161 10206 20178 55000





000
SAUS44 KSHV 132355
MTRBKB
METAR KBKB 132354Z AUTO VRB04KT 10SM OVC010 19/16 A3011 RMK AO2
SLP223 T01940161 10211 20194 53000





000
SAUS44 KSHV 132258
MTRAQV
METAR KAQV 132256Z AUTO 01008KT 9SM OVC010 18/16 A3013 RMK AO2
SLP202 T01830156





000
SAUS44 KSHV 132256
MTRPOE
METAR KPOE 132255Z AUTO 03007KT 10SM OVC012 19/16 A3013 RMK AO2
SLP204 T01890161





000
SAUS44 KSHV 132255
MTRBKB
METAR KBKB 132254Z AUTO VRB06KT 10SM OVC011 19/16 A3011 RMK AO2
SLP223 T01940161





000
SAUS44 KSHV 132240
MTRAQV
SPECI KAQV 132238Z AUTO 01006KT 9SM OVC010 18/16 A3013 RMK AO2
T01830156





000
SAUS44 KSHV 132225
MTRAQV
SPECI KAQV 132224Z AUTO 36007KT 10SM OVC009 18/16 A3012 RMK AO2
T01830156





000
SAUS44 KSHV 132157
MTRAQV
METAR KAQV 132156Z AUTO 36009KT 10SM OVC010 18/16 A3012 RMK AO2
SLP199 T01830156





000
SAUS44 KSHV 132156
MTRPOE
METAR KPOE 132155Z AUTO 01010G16KT 10SM OVC012 19/16 A3012 RMK AO2
SLP201 T01890161





000
SAUS44 KSHV 132155
MTRBKB
METAR KBKB 132154Z AUTO 03007KT 10SM OVC011 20/16 A3010 RMK AO2
SLP221 T02000161





000
SAUS44 KSHV 132058
MTRAQV
METAR KAQV 132056Z AUTO 02007G16KT 10SM OVC011 19/16 A3013 RMK AO2
SLP203 T01890156 58010





000
SAUS44 KSHV 132056
MTRPOE
METAR KPOE 132055Z AUTO 03007KT 10SM OVC014 20/17 A3013 RMK AO2
SLP203 T02000167 58013





000
SAUS44 KSHV 132055
MTRBKB
METAR KBKB 132054Z AUTO VRB05KT 10SM OVC011 21/16 A3011 RMK AO2
SLP223 T02060161 58012





000
SAUS44 KSHV 131958
MTRAQV
METAR KAQV 131956Z AUTO VRB06KT 10SM OVC012 19/16 A3015 RMK AO2
SLP208 T01940156





000
SAUS44 KSHV 131956
MTRPOE
METAR KPOE 131955Z AUTO 02011KT 10SM OVC012 20/17 A3014 RMK AO2
SLP206 T02000167





000
SAUS44 KSHV 131955
MTRBKB
METAR KBKB 131954Z AUTO VRB06KT 10SM OVC011 21/16 A3012 RMK AO2
SLP225 T02060161





000
SAUS44 KSHV 131935
MTRBKB
SPECI KBKB 131934Z AUTO VRB05KT 10SM OVC010 21/17 A3012 RMK AO2
T02110167





000
SAUS44 KSHV 131935
MTRAQV
SPECI KAQV 131933Z AUTO 02011KT 10SM OVC010 19/16 A3015 RMK AO2
T01890156





000
SAUS44 KSHV 131919
MTRBKB
SPECI KBKB 131918Z AUTO VRB05KT 10SM OVC009 21/17 A3013 RMK AO2 CIG
009V012 T02060167





000
SAUS44 KSHV 131857
MTRAQV
METAR KAQV 131856Z AUTO 01006KT 10SM OVC009 18/16 A3016 RMK AO2 CIG
008V013 SLP213 T01830161





000
SAUS44 KSHV 131856
MTRPOE
METAR KPOE 131855Z AUTO 01009G15KT 10SM OVC010 19/16 A3016 RMK AO2
SLP215 T01890161





000
SAUS44 KSHV 131855
MTRBKB
METAR KBKB 131854Z AUTO VRB05KT 10SM OVC011 21/17 A3014 RMK AO2
SLP233 T02060167





000
SAUS44 KSHV 131852
MTRBKB
SPECI KBKB 131851Z AUTO 02006KT 10SM OVC011 21/16 A3014 RMK AO2





000
SAUS44 KSHV 131844
MTRAQV
SPECI KAQV 131842Z AUTO 02009KT 10SM OVC010 19/16 A3016 RMK AO2 CIG
007V013 T01890161





000
SAUS44 KSHV 131823
MTRPOE
SPECI KPOE 131822Z AUTO 03009KT 10SM OVC010 19/17 A3016 RMK AO2





000
SAUS44 KSHV 131757
MTRAQV
METAR KAQV 131756Z AUTO 02009KT 10SM OVC008 18/16 A3017 RMK AO2 CIG
007V012 SLP215 60000 T01830161 10189 20172 58003





000
SAUS44 KSHV 131756
MTRPOE
METAR KPOE 131755Z AUTO 02012G17KT 10SM OVC008 19/16 A3016 RMK AO2
SLP216 60000 T01890161 10194 20178 58004





000
SAUS44 KSHV 131756
MTRBKB
METAR KBKB 131754Z AUTO 03007KT 10SM OVC007 21/17 A3014 RMK AO2 CIG
005V011 SLP233 T02060172 10206 20183 58001





000
SAUS44 KSHV 131747
MTRPOE
SPECI KPOE 131745Z AUTO 02008KT 10SM OVC008 19/17 A3016 RMK AO2 CIG
006V011





000
SAUS44 KSHV 131708
MTRBKB
SPECI KBKB 131706Z AUTO VRB05KT 10SM SCT006 OVC009 20/17 A3016 RMK
AO2 CIG 008V012 T02000167





000
SAUS44 KSHV 131658
MTRAQV
METAR KAQV 131656Z AUTO VRB05KT 10SM OVC010 18/16 A3018 RMK AO2 CIG
009V013 SLP219 T01830161





000
SAUS44 KSHV 131656
MTRPOE
METAR KPOE 131655Z AUTO 01010KT 10SM OVC006 18/17 A3018 RMK AO2 CIG
005V010 SLP220 T01780167





000
SAUS44 KSHV 131656
MTRBKB
METAR KBKB 131654Z AUTO VRB05KT 9SM OVC004 19/17 A3016 RMK AO2
SLP239 T01890167





000
SAUS44 KSHV 131636
MTRAQV
SPECI KAQV 131635Z AUTO 04007KT 10SM OVC010 18/16 A3018 RMK AO2 CIG
005V014 T01830161





000
SAUS44 KSHV 131616
MTRBKB
SPECI KBKB 131615Z AUTO 02007KT 350V050 6SM BR OVC004 19/17 A3016
RMK AO2 CIG 004V007 T01890167





000
SAUS44 KSHV 131557
MTRAQV
METAR KAQV 131556Z AUTO 04007KT 6SM BR OVC008 18/16 A3018 RMK AO2
CIG 007V012 SLP218 T01780161





000
SAUS44 KSHV 131556
MTRPOE
METAR KPOE 131555Z AUTO 04007G16KT 10SM OVC008 18/17 A3018 RMK AO2
SLP220 T01830167





000
SAUS44 KSHV 131555
MTRBKB
METAR KBKB 131554Z AUTO 02007G14KT 340V060 9SM OVC006 19/17 A3016
RMK AO2 SLP238 T01890167





000
SAUS44 KSHV 131552
MTRPOE
SPECI KPOE 131551Z AUTO 03011KT 10SM OVC008 18/17 A3018 RMK AO2 CIG
006V011





000
SAUS44 KSHV 131508
MTRPOE
SPECI KPOE 131506Z AUTO 03007KT 10SM BKN006 OVC010 18/17 A3017 RMK
AO2 CIG 006V009





000
SAUS44 KSHV 131457
MTRAQV
METAR KAQV 131456Z AUTO 02005KT 3SM BR OVC007 18/17 A3017 RMK AO2
CIG 005V009 SLP216 60000 T01780167 53020





000
SAUS44 KSHV 131456
MTRPOE
METAR KPOE 131455Z AUTO 03006G14KT 10SM OVC008 18/17 A3016 RMK AO2
CIG 006V013 SLP216 60000 T01780167 53013





000
SAUS44 KSHV 131455
MTRBKB
METAR KBKB 131454Z AUTO VRB05KT 4SM BR OVC006 19/17 A3015 RMK AO2
CIG 004V009 SLP235 T01890167 51019





000
SAUS44 KSHV 131439
MTRBKB
SPECI KBKB 131437Z AUTO VRB05KT 4SM BR OVC006 19/17 A3014 RMK AO2
CIG 004V009 T01890172





000
SAUS44 KSHV 131429
MTRBKB
SPECI KBKB 131428Z AUTO 03005KT 2 1/2SM BR OVC006 18/17 A3014 RMK
AO2 CIG 004V010 T01830167





000
SAUS44 KSHV 131425
MTRPOE
SPECI KPOE 131424Z AUTO 02009KT 10SM OVC008 18/17 A3016 RMK AO2 CIG
005V010





000
SAUS44 KSHV 131415
MTRPOE
SPECI KPOE 131414Z AUTO 02010G14KT 10SM OVC006 18/17 A3015 RMK AO2
CIG 005V010





000
SAUS44 KSHV 131358
MTRAQV
METAR KAQV 131356Z AUTO 02007KT 350V050 4SM BR OVC005 18/17 A3015
RMK AO2 CIG 004V008 SLP207 T01780167





000
SAUS44 KSHV 131357
MTRPOE
METAR KPOE 131355Z AUTO 03007KT 10SM OVC008 18/17 A3015 RMK AO2 CIG
006V012 SLP210 T01780172





000
SAUS44 KSHV 131355
MTRBKB
METAR KBKB 131354Z AUTO VRB05KT 10SM OVC005 18/17 A3013 RMK AO2 CIG
004V010 SLP228 T01830167





000
SAUS44 KSHV 131350
MTRAQV
SPECI KAQV 131348Z AUTO 01007KT 4SM BR OVC005 18/17 A3014 RMK AO2
CIG 004V007 T01780167





000
SAUS44 KSHV 131339
MTRAQV
SPECI KAQV 131338Z AUTO 02006KT 2SM BR OVC005 17/17 A3014 RMK AO2
T01720167





000
SAUS44 KSHV 131337
MTRAQV
SPECI KAQV 131336Z AUTO 02005KT 1 3/4SM BR OVC004 17/17 A3014 RMK
AO2 T01720167





000
SAUS44 KSHV 131317
MTRAQV
SPECI KAQV 131315Z AUTO VRB05KT 2SM BR OVC004 17/17 A3014 RMK AO2
T01720167





000
SAUS44 KSHV 131314
MTRBKB
SPECI KBKB 131313Z AUTO 02006KT 3SM BR OVC005 18/17 A3012 RMK AO2
T01830167





000
SAUS44 KSHV 131303
MTRBKB
SPECI KBKB 131301Z AUTO VRB04KT 3SM BR OVC004 18/17 A3011 RMK AO2
T01830167





000
SAUS44 KSHV 131258
MTRAQV
METAR KAQV 131256Z AUTO 03007KT 4SM BR OVC004 17/17 A3013 RMK AO2
RAE00 SLP201 P0000 T01720167





000
SAUS44 KSHV 131256
MTRPOE
METAR KPOE 131255Z AUTO 04012G18KT 10SM OVC008 18/17 A3012 RMK AO2
RAB17E26 CIG 005V011 SLP203 P0000 T01780167





000
SAUS44 KSHV 131256
MTRBKB
METAR KBKB 131254Z AUTO VRB05KT 2 1/2SM BR OVC004 18/17 A3011 RMK
AO2 CIG 003V007 SLP224 T01830167





000
SAUS44 KSHV 131251
MTRPOE
SPECI KPOE 131250Z AUTO 04010G15KT 10SM OVC006 18/17 A3012 RMK AO2
RAB17E26 CIG 005V009 P0000





000
SAUS44 KSHV 131235
MTRAQV
SPECI KAQV 131234Z AUTO 03007KT 4SM BR OVC004 17/17 A3013 RMK AO2
RAE00 P0000 T01720167





000
SAUS44 KSHV 131230
MTRBKB
SPECI KBKB 131229Z AUTO 02004KT 2SM BR OVC004 18/17 A3010 RMK AO2
CIG 003V007 T01830172





000
SAUS44 KSHV 131216
MTRAQV
SPECI KAQV 131215Z AUTO 02008KT 3SM BR OVC005 17/17 A3012 RMK AO2
RAE00 P0000 T01720167





000
SAUS44 KSHV 131157
MTRAQV
METAR KAQV 131156Z AUTO 02008KT 3SM -RA BR OVC004 17/17 A3011 RMK
AO2 RAB39 SLP195 P0000 60000 70001 T01720167 10222 20172 53014





000
SAUS44 KSHV 131156
MTRBKB
METAR KBKB 131154Z AUTO 03005KT 4SM BR OVC003 18/17 A3009 RMK AO2
SLP215 60002 70277 T01830172 10233 20183 53015





000
SAUS44 KSHV 131156
MTRPOE
METAR KPOE 131155Z AUTO 04010KT 10SM OVC004 18/17 A3011 RMK AO2
SLP196 60000 70298 T01780172 10228 20178 53016





    US Dept of Commerce
    National Oceanic and Atmospheric Administration
    National Weather Service
    1325 East West Highway
    Silver Spring, MD 20910
    Page Author: NWS Internet Services Team
Disclaimer
Information Quality
Credits
Glossary
Privacy Policy
Freedom of Information Act (FOIA)
About Us
Career Opportunities